Terminal Aerodrome Forecast
Issued by NWS Twin Cities, MN

Home | Current Version | Previous Version | Text Only | Print | Product List | Glossary Off
Versions: 1 2 3 4 5 6 7 8 9 10 11 12 13 14 15 16 17 18 19 20 21 22 23 24 25

000
FTUS43 KMPX 170851 AAA
TAFMSP
TAF AMD
KMSP 170851Z 1709/1812 15014G21KT P6SM SCT022 OVC140
     FM171200 15015G22KT P6SM OVC022
     FM171400 15012KT 6SM -DZ BR OVC014
     FM171600 15008KT 4SM -DZ BR OVC008
     FM172300 34006KT 5SM -DZ BR OVC008
     FM180400 34010KT P6SM OVC012=

USA.gov is the U.S. government's official web portal to all federal, state and local government web resources and services.